createdAt,value
2023-03-11T00:00:19.254Z,54.48
2023-03-11T00:02:47.576Z,54.22
2023-03-11T00:05:20.959Z,53.90
2023-03-11T00:07:48.058Z,53.74
2023-03-11T00:10:17.997Z,54.15
2023-03-11T00:12:45.109Z,54.21
2023-03-11T00:15:12.619Z,53.90
2023-03-11T00:17:40.121Z,53.75
2023-03-11T00:20:08.685Z,53.57
2023-03-11T00:22:35.735Z,54.15
2023-03-11T00:25:02.794Z,54.24
2023-03-11T00:27:30.516Z,54.23
2023-03-11T00:29:57.514Z,54.16
2023-03-11T00:32:24.560Z,54.20
2023-03-11T00:34:51.606Z,54.42
2023-03-11T00:37:18.654Z,55.04
2023-03-11T00:39:45.661Z,55.10
2023-03-11T00:42:12.681Z,54.44
2023-03-11T00:44:39.710Z,54.08
2023-03-11T00:47:06.863Z,54.35
2023-03-11T00:49:33.848Z,54.24
2023-03-11T00:52:00.806Z,54.54
2023-03-11T00:54:28.623Z,54.90
2023-03-11T00:56:55.988Z,55.19
2023-03-11T00:59:23.274Z,55.15
2023-03-11T01:01:50.254Z,54.84
2023-03-11T01:04:17.445Z,55.13
2023-03-11T01:06:46.065Z,55.12
2023-03-11T01:09:13.546Z,55.43
2023-03-11T01:11:40.567Z,55.29
2023-03-11T01:14:09.001Z,54.87
2023-03-11T01:16:36.058Z,54.74
2023-03-11T01:19:03.448Z,56.40
2023-03-11T01:21:30.501Z,55.31
2023-03-11T01:23:57.489Z,56.24
2023-03-11T01:26:24.501Z,56.14
2023-03-11T01:28:51.527Z,55.63
2023-03-11T01:31:18.618Z,56.03
2023-03-11T01:33:45.689Z,56.53
2023-03-11T01:36:12.948Z,56.92
2023-03-11T01:38:39.951Z,56.83
2023-03-11T01:41:07.113Z,56.81
2023-03-11T01:43:40.059Z,56.72
2023-03-11T01:46:48.370Z,57.07
2023-03-11T01:49:15.453Z,57.19
2023-03-11T01:51:47.092Z,56.70
2023-03-11T01:54:28.661Z,56.74
2023-03-11T01:56:56.760Z,56.92
2023-03-11T01:59:28.896Z,57.01
2023-03-11T02:02:07.541Z,57.14
2023-03-11T02:04:36.699Z,56.66
2023-03-11T02:07:05.772Z,57.26
2023-03-11T02:09:32.856Z,57.47
2023-03-11T02:12:00.042Z,57.62
2023-03-11T02:14:30.597Z,56.92
2023-03-11T02:16:59.945Z,57.47
2023-03-11T02:19:41.504Z,57.57
2023-03-11T02:22:10.566Z,57.47
2023-03-11T02:24:55.408Z,57.50
2023-03-11T02:27:25.015Z,57.29
2023-03-11T02:29:54.212Z,56.61
2023-03-11T02:32:23.333Z,57.27
2023-03-11T02:34:50.444Z,57.08
2023-03-11T02:37:18.489Z,57.18
2023-03-11T02:39:54.310Z,57.05
2023-03-11T02:42:32.730Z,57.15
2023-03-11T02:45:10.441Z,57.01
2023-03-11T02:47:39.264Z,56.87
2023-03-11T02:50:12.346Z,57.55
2023-03-11T02:52:39.891Z,57.39
2023-03-11T02:55:08.305Z,57.25
2023-03-11T02:57:35.303Z,56.86
2023-03-11T03:00:10.888Z,56.98
2023-03-11T03:02:38.784Z,56.65
2023-03-11T03:05:06.656Z,57.02
2023-03-11T03:07:35.147Z,57.23
2023-03-11T03:10:02.656Z,56.72
2023-03-11T03:12:31.120Z,56.55
2023-03-11T03:14:58.410Z,56.54
2023-03-11T03:17:26.003Z,56.30
2023-03-11T03:19:53.109Z,56.22
2023-03-11T03:22:20.185Z,56.08
2023-03-11T03:24:48.234Z,56.21
2023-03-11T03:27:15.711Z,56.08
2023-03-11T03:29:42.722Z,56.41
2023-03-11T03:32:09.882Z,56.98
2023-03-11T03:34:37.088Z,56.43
2023-03-11T03:37:04.277Z,56.28
2023-03-11T03:39:33.377Z,56.74
2023-03-11T03:42:00.599Z,56.82
2023-03-11T03:44:30.905Z,57.33
2023-03-11T03:46:59.717Z,57.20
2023-03-11T03:49:27.414Z,57.76
2023-03-11T03:51:55.012Z,57.38
2023-03-11T03:54:30.103Z,57.25
2023-03-11T03:56:58.625Z,57.08
2023-03-11T03:59:25.624Z,58.67
2023-03-11T04:01:56.438Z,59.04
2023-03-11T04:04:25.305Z,59.65
2023-03-11T04:06:52.617Z,60.99
2023-03-11T04:09:20.588Z,60.36
2023-03-11T04:11:48.049Z,60.09
2023-03-11T04:14:16.641Z,59.30
2023-03-11T04:16:51.366Z,59.36
2023-03-11T04:19:18.869Z,59.27
2023-03-11T04:21:46.416Z,59.34
2023-03-11T04:24:13.454Z,59.19
2023-03-11T04:26:40.472Z,59.39
2023-03-11T04:29:11.926Z,59.10
2023-03-11T04:31:42.959Z,59.23
2023-03-11T04:34:10.098Z,59.56
2023-03-11T04:36:38.696Z,61.51
2023-03-11T04:39:08.280Z,62.81
2023-03-11T04:41:40.817Z,62.64
2023-03-11T04:44:09.452Z,63.11
2023-03-11T04:46:37.540Z,62.63
2023-03-11T04:49:07.493Z,62.29
2023-03-11T04:51:34.797Z,61.61
2023-03-11T04:54:02.033Z,61.57
2023-03-11T04:56:30.523Z,62.05
2023-03-11T04:58:58.078Z,63.03
2023-03-11T05:01:26.268Z,62.54
2023-03-11T05:03:53.513Z,63.16
2023-03-11T05:06:21.292Z,62.25
2023-03-11T05:08:48.593Z,62.37
2023-03-11T05:11:15.671Z,63.35
2023-03-11T05:13:44.500Z,62.45
2023-03-11T05:16:11.987Z,62.66
2023-03-11T05:18:39.246Z,64.72
2023-03-11T05:21:06.857Z,65.09
2023-03-11T05:23:36.602Z,65.30
2023-03-11T05:26:03.953Z,65.16
2023-03-11T05:28:33.288Z,64.90
2023-03-11T05:31:01.358Z,65.13
2023-03-11T05:33:35.465Z,65.09
2023-03-11T05:36:09.042Z,64.64
2023-03-11T05:38:38.329Z,64.48
2023-03-11T05:41:06.510Z,64.37
2023-03-11T05:43:34.261Z,63.72
2023-03-11T05:46:01.304Z,63.12
2023-03-11T05:48:28.558Z,63.92
2023-03-11T05:50:55.909Z,63.49
2023-03-11T05:53:23.797Z,63.57
2023-03-11T05:55:58.355Z,63.55
2023-03-11T05:58:31.063Z,63.59
2023-03-11T06:01:00.287Z,62.44
2023-03-11T06:03:27.731Z,62.62
2023-03-11T06:05:54.847Z,63.28
2023-03-11T06:08:22.230Z,62.94
2023-03-11T06:10:49.462Z,63.36
2023-03-11T06:13:18.830Z,63.97
2023-03-11T06:15:51.992Z,63.69
2023-03-11T06:18:21.154Z,63.32
2023-03-11T06:20:48.521Z,62.55
2023-03-11T06:23:16.427Z,63.82
2023-03-11T06:25:43.684Z,63.47
2023-03-11T06:28:11.605Z,63.10
2023-03-11T06:30:39.286Z,62.82
2023-03-11T06:33:10.915Z,63.01
2023-03-11T06:35:38.118Z,62.13
2023-03-11T06:38:05.171Z,63.27
2023-03-11T06:40:32.508Z,63.32
2023-03-11T06:42:59.740Z,64.23
2023-03-11T06:45:31.145Z,64.94
2023-03-11T06:47:58.604Z,63.92
2023-03-11T06:50:26.174Z,64.68
2023-03-11T06:52:55.172Z,65.09
2023-03-11T06:55:23.358Z,65.30
2023-03-11T06:57:50.503Z,65.43
2023-03-11T07:00:17.962Z,64.92
2023-03-11T07:02:49.787Z,64.01
2023-03-11T07:05:18.279Z,64.03
2023-03-11T07:07:46.133Z,63.69
2023-03-11T07:10:13.271Z,63.24
2023-03-11T07:12:40.296Z,64.13
2023-03-11T07:15:08.597Z,63.88
2023-03-11T07:17:36.399Z,63.63
2023-03-11T07:20:04.282Z,64.73
2023-03-11T07:22:31.504Z,65.93
2023-03-11T07:24:58.516Z,64.54
2023-03-11T07:27:25.535Z,65.04
2023-03-11T07:29:52.590Z,64.03
2023-03-11T07:32:19.719Z,63.74
2023-03-11T07:34:46.912Z,63.56
2023-03-11T07:37:14.313Z,64.17
2023-03-11T07:39:41.337Z,63.49
2023-03-11T07:42:08.461Z,64.68
2023-03-11T07:44:36.674Z,64.43
2023-03-11T07:47:05.004Z,64.15
2023-03-11T07:49:32.584Z,64.79
2023-03-11T07:51:59.646Z,66.33
2023-03-11T07:54:26.795Z,65.79
2023-03-11T07:56:53.839Z,65.81
2023-03-11T07:59:20.912Z,64.72
2023-03-11T08:01:47.982Z,64.48
2023-03-11T08:04:17.174Z,64.80
2023-03-11T08:06:47.147Z,64.29
2023-03-11T08:09:14.593Z,63.87
2023-03-11T08:11:42.691Z,64.69
2023-03-11T08:14:09.958Z,64.23
2023-03-11T08:16:39.371Z,64.92
2023-03-11T08:19:06.364Z,65.84
2023-03-11T08:21:33.518Z,64.54
2023-03-11T08:24:02.261Z,64.34
2023-03-11T08:26:31.478Z,63.94
2023-03-11T08:28:59.267Z,65.34
2023-03-11T08:31:29.646Z,64.11
2023-03-11T08:33:59.345Z,65.16
2023-03-11T08:36:27.497Z,65.28
2023-03-11T08:38:54.672Z,65.74
2023-03-11T08:41:21.952Z,66.27
2023-03-11T08:43:49.019Z,66.03
2023-03-11T08:46:20.689Z,65.90
2023-03-11T08:48:47.734Z,66.11
2023-03-11T08:51:15.816Z,65.38
2023-03-11T08:53:42.890Z,64.87
2023-03-11T08:56:09.999Z,64.48
2023-03-11T08:58:37.136Z,64.65
2023-03-11T09:01:04.985Z,64.03
2023-03-11T09:03:34.151Z,63.98
2023-03-11T09:06:03.254Z,64.05
2023-03-11T09:08:30.345Z,64.14
2023-03-11T09:10:57.446Z,64.49
2023-03-11T09:13:24.593Z,63.71
2023-03-11T09:15:51.996Z,64.55
2023-03-11T09:18:19.521Z,64.99
2023-03-11T09:20:47.112Z,65.48
2023-03-11T09:23:16.983Z,64.19
2023-03-11T09:25:44.347Z,64.48
2023-03-11T09:28:11.393Z,65.19
2023-03-11T09:30:38.578Z,65.77
2023-03-11T09:33:05.774Z,66.12
2023-03-11T09:35:33.157Z,65.45
2023-03-11T09:38:00.673Z,65.07
2023-03-11T09:40:39.506Z,64.52
2023-03-11T09:43:38.927Z,65.40
2023-03-11T09:46:44.825Z,66.88
2023-03-11T09:49:17.932Z,66.88
2023-03-11T09:52:06.965Z,65.87
2023-03-11T09:54:39.489Z,65.83
2023-03-11T09:57:10.060Z,65.78
2023-03-11T09:59:38.657Z,66.41
2023-03-11T10:02:06.291Z,67.49
2023-03-11T10:04:50.181Z,67.27
2023-03-11T10:07:22.978Z,67.16
2023-03-11T10:09:57.070Z,67.38
2023-03-11T10:12:33.056Z,67.72
2023-03-11T10:15:25.831Z,66.96
2023-03-11T10:18:20.550Z,67.09
2023-03-11T10:21:08.046Z,67.59
2023-03-11T10:24:14.470Z,68.03
2023-03-11T10:26:52.110Z,67.07
2023-03-11T10:29:27.636Z,66.41
2023-03-11T10:32:15.398Z,65.89
2023-03-11T10:34:53.811Z,66.30
2023-03-11T10:37:30.930Z,66.59
2023-03-11T10:40:23.777Z,66.71
2023-03-11T10:42:53.470Z,66.56
2023-03-11T10:45:23.542Z,66.19
2023-03-11T10:47:50.683Z,65.82
2023-03-11T10:50:19.461Z,65.96
2023-03-11T10:53:09.562Z,66.26
2023-03-11T10:55:46.390Z,65.91
2023-03-11T10:58:17.267Z,65.91
2023-03-11T11:00:45.287Z,65.92
2023-03-11T11:03:21.907Z,66.20
2023-03-11T11:06:05.761Z,66.30
2023-03-11T11:08:33.936Z,65.79
2023-03-11T11:11:04.143Z,65.44
2023-03-11T11:13:37.203Z,66.05
2023-03-11T11:16:21.285Z,65.49
2023-03-11T11:19:03.629Z,65.75
2023-03-11T11:21:37.546Z,65.41
2023-03-11T11:24:27.506Z,65.36
2023-03-11T11:27:06.592Z,65.70
2023-03-11T11:29:34.913Z,65.95
2023-03-11T11:32:31.368Z,65.61
2023-03-11T11:35:03.983Z,65.56
2023-03-11T11:37:33.843Z,65.87
2023-03-11T11:40:11.668Z,66.05
2023-03-11T11:42:42.868Z,65.26
2023-03-11T11:45:19.366Z,65.00
2023-03-11T11:47:54.254Z,65.24
2023-03-11T11:50:34.762Z,64.80
2023-03-11T11:53:28.522Z,65.74
2023-03-11T11:55:55.530Z,66.28
2023-03-11T11:58:22.808Z,65.75
2023-03-11T12:01:24.772Z,66.00
2023-03-11T12:04:23.576Z,66.31
2023-03-11T12:07:18.708Z,66.36
2023-03-11T12:10:22.860Z,66.03
2023-03-11T12:13:12.750Z,65.59
2023-03-11T12:16:03.612Z,65.68
2023-03-11T12:18:38.684Z,65.49
2023-03-11T12:21:47.477Z,66.30
2023-03-11T12:24:39.057Z,65.60
2023-03-11T12:27:18.804Z,65.69
2023-03-11T12:29:58.135Z,64.67
2023-03-11T12:32:37.956Z,65.44
2023-03-11T12:35:19.857Z,65.34
2023-03-11T12:37:56.406Z,65.14
2023-03-11T12:40:44.919Z,64.73
2023-03-11T12:43:33.990Z,64.76
2023-03-11T12:46:04.948Z,65.35
2023-03-11T12:49:11.790Z,64.36
2023-03-11T12:51:40.210Z,64.34
2023-03-11T12:54:40.677Z,65.03
2023-03-11T12:57:34.417Z,65.03
2023-03-11T13:00:28.976Z,64.80
2023-03-11T13:02:58.776Z,64.85
2023-03-11T13:05:43.292Z,64.16
2023-03-11T13:08:19.452Z,64.14
2023-03-11T13:10:54.628Z,64.29
2023-03-11T13:13:35.407Z,64.89
2023-03-11T13:16:14.863Z,64.61
2023-03-11T13:18:44.364Z,65.44
2023-03-11T13:21:32.268Z,64.49
2023-03-11T13:24:27.195Z,65.10
2023-03-11T13:27:00.255Z,65.34
2023-03-11T13:29:49.196Z,65.04
2023-03-11T13:32:37.344Z,66.13
2023-03-11T13:35:13.276Z,65.26
2023-03-11T13:38:14.214Z,65.78
2023-03-11T13:40:46.304Z,64.55
2023-03-11T13:43:22.032Z,64.33
2023-03-11T13:45:56.680Z,66.65
2023-03-11T13:48:45.383Z,65.73
2023-03-11T13:51:28.050Z,65.82
2023-03-11T13:54:02.738Z,65.61
2023-03-11T13:56:33.468Z,66.30
2023-03-11T13:59:23.534Z,66.77
2023-03-11T14:01:56.234Z,65.60
2023-03-11T14:04:29.525Z,65.05
2023-03-11T14:06:56.664Z,66.06
2023-03-11T14:09:26.070Z,65.67
2023-03-11T14:11:54.880Z,65.20
2023-03-11T14:14:43.212Z,65.66
2023-03-11T14:17:17.124Z,66.00
2023-03-11T14:20:01.699Z,66.83
2023-03-11T14:22:32.004Z,65.93
2023-03-11T14:25:02.126Z,65.32
2023-03-11T14:27:30.740Z,65.72
2023-03-11T14:29:57.780Z,65.54
2023-03-11T14:32:29.424Z,66.00
2023-03-11T14:34:57.263Z,65.85
2023-03-11T14:37:26.076Z,65.47
2023-03-11T14:39:54.060Z,65.33
2023-03-11T14:42:34.851Z,64.91
2023-03-11T14:45:16.600Z,66.49
2023-03-11T14:48:10.512Z,66.69
2023-03-11T14:50:38.276Z,66.46
2023-03-11T14:53:05.258Z,65.78
2023-03-11T14:55:36.538Z,67.05
2023-03-11T14:58:10.694Z,66.73
2023-03-11T15:00:43.528Z,66.49
2023-03-11T15:03:31.961Z,65.87
2023-03-11T15:06:08.937Z,66.70
2023-03-11T15:08:48.525Z,66.58
2023-03-11T15:11:16.480Z,66.14
2023-03-11T15:13:47.527Z,65.65
2023-03-11T15:16:35.473Z,66.07
2023-03-11T15:19:41.072Z,66.48
2023-03-11T15:22:25.139Z,66.77
2023-03-11T15:24:55.213Z,67.03
2023-03-11T15:27:33.192Z,66.00
2023-03-11T15:30:02.104Z,65.33
2023-03-11T15:32:42.720Z,65.77
2023-03-11T15:35:11.202Z,65.32
2023-03-11T15:37:39.612Z,65.71
2023-03-11T15:40:44.006Z,66.18
2023-03-11T15:43:33.021Z,66.02
2023-03-11T15:46:02.536Z,65.93
2023-03-11T15:48:31.487Z,66.32
2023-03-11T15:51:00.451Z,66.12
2023-03-11T15:53:29.532Z,66.30
2023-03-11T15:56:06.966Z,65.86
2023-03-11T15:58:36.462Z,66.10
2023-03-11T16:01:04.210Z,66.62
2023-03-11T16:03:31.651Z,67.06
2023-03-11T16:05:58.766Z,67.31
2023-03-11T16:08:25.806Z,67.75
2023-03-11T16:10:52.826Z,67.22
2023-03-11T16:13:19.864Z,66.36
2023-03-11T16:15:47.351Z,66.64
2023-03-11T16:18:14.681Z,66.03
2023-03-11T16:20:48.164Z,66.71
2023-03-11T16:23:26.734Z,67.11
2023-03-11T16:26:01.303Z,67.65
2023-03-11T16:28:28.555Z,66.77
2023-03-11T16:30:55.827Z,67.26
2023-03-11T16:33:29.088Z,66.54
2023-03-11T16:35:56.143Z,67.34
2023-03-11T16:38:25.899Z,67.99
2023-03-11T16:41:03.102Z,66.94
2023-03-11T16:43:30.475Z,67.96
2023-03-11T16:45:57.508Z,68.04
2023-03-11T16:48:24.669Z,67.64
2023-03-11T16:50:51.696Z,66.97
2023-03-11T16:53:18.826Z,67.30
2023-03-11T16:55:46.363Z,67.12
2023-03-11T16:58:14.553Z,66.81
2023-03-11T17:00:42.930Z,67.30
2023-03-11T17:03:15.215Z,66.88
2023-03-11T17:05:42.899Z,66.89
2023-03-11T17:08:10.451Z,66.89
2023-03-11T17:10:38.384Z,67.91
2023-03-11T17:13:07.220Z,68.12
2023-03-11T17:15:38.434Z,68.53
2023-03-11T17:18:06.124Z,68.43
2023-03-11T17:20:33.651Z,68.37
2023-03-11T17:23:00.949Z,67.37
2023-03-11T17:25:28.030Z,67.53
2023-03-11T17:27:55.127Z,67.81
2023-03-11T17:30:36.014Z,67.68
2023-03-11T17:33:04.296Z,67.70
2023-03-11T17:35:31.523Z,68.12
2023-03-11T17:37:58.609Z,66.71
2023-03-11T17:40:27.157Z,67.01
2023-03-11T17:42:54.279Z,66.48
2023-03-11T17:45:21.327Z,67.41
2023-03-11T17:47:48.404Z,66.98
2023-03-11T17:50:15.456Z,66.74
2023-03-11T17:52:46.825Z,67.55
2023-03-11T17:55:13.925Z,66.96
2023-03-11T17:57:45.569Z,67.21
2023-03-11T18:00:15.102Z,67.21
2023-03-11T18:02:42.491Z,67.17
2023-03-11T18:05:09.771Z,66.74
2023-03-11T18:07:41.293Z,67.94
2023-03-11T18:10:09.371Z,68.24
2023-03-11T18:12:36.785Z,67.59
2023-03-11T18:15:14.445Z,68.37
2023-03-11T18:17:41.556Z,68.04
2023-03-11T18:20:09.226Z,68.36
2023-03-11T18:22:37.255Z,68.83
2023-03-11T18:25:04.701Z,67.42
2023-03-11T18:27:31.752Z,67.74
2023-03-11T18:30:00.263Z,69.70
2023-03-11T18:32:27.332Z,69.03
2023-03-11T18:34:54.431Z,69.87
2023-03-11T18:37:21.503Z,69.36
2023-03-11T18:39:48.629Z,69.49
2023-03-11T18:42:16.119Z,69.95
2023-03-11T18:44:43.180Z,68.74
2023-03-11T18:47:10.851Z,69.61
2023-03-11T18:49:37.913Z,69.15
2023-03-11T18:52:05.848Z,68.96
2023-03-11T18:54:32.946Z,68.11
2023-03-11T18:56:59.958Z,68.83
2023-03-11T18:59:27.975Z,69.22
2023-03-11T19:01:55.446Z,69.11
2023-03-11T19:04:22.704Z,69.58
2023-03-11T19:06:50.396Z,68.82
2023-03-11T19:09:18.657Z,70.24
2023-03-11T19:11:46.507Z,69.84
2023-03-11T19:14:13.749Z,69.47
2023-03-11T19:16:40.809Z,69.22
2023-03-11T19:19:10.816Z,69.02
2023-03-11T19:21:38.799Z,70.97
2023-03-11T19:24:05.980Z,70.87
2023-03-11T19:26:44.336Z,70.61
2023-03-11T19:29:13.781Z,70.97
2023-03-11T19:31:40.982Z,71.21
2023-03-11T19:34:08.104Z,71.16
2023-03-11T19:36:35.362Z,70.75
2023-03-11T19:39:02.366Z,70.70
2023-03-11T19:41:29.384Z,70.52
2023-03-11T19:43:56.475Z,70.27
2023-03-11T19:46:24.093Z,70.53
2023-03-11T19:48:51.342Z,69.97
2023-03-11T19:51:19.608Z,69.91
2023-03-11T19:53:47.232Z,70.15
2023-03-11T19:56:14.431Z,70.76
2023-03-11T19:58:42.888Z,71.91
2023-03-11T20:01:21.195Z,72.35
2023-03-11T20:03:48.358Z,71.18
2023-03-11T20:06:18.483Z,71.92
2023-03-11T20:08:45.560Z,72.47
2023-03-11T20:11:13.152Z,72.68
2023-03-11T20:13:42.802Z,73.47
2023-03-11T20:16:18.515Z,73.62
2023-03-11T20:18:50.111Z,73.80
2023-03-11T20:21:18.996Z,74.85
2023-03-11T20:23:46.179Z,73.75
2023-03-11T20:26:15.762Z,74.40
2023-03-11T20:28:43.044Z,73.77
2023-03-11T20:31:21.071Z,73.88
2023-03-11T20:33:50.301Z,73.60
2023-03-11T20:36:23.214Z,73.48
2023-03-11T20:38:52.493Z,74.34
2023-03-11T20:41:19.779Z,73.66
2023-03-11T20:43:46.862Z,73.38
2023-03-11T20:46:14.058Z,73.97
2023-03-11T20:48:41.193Z,73.84
2023-03-11T20:51:12.101Z,74.96
2023-03-11T20:53:39.561Z,73.56
2023-03-11T20:56:09.646Z,74.59
2023-03-11T20:58:37.271Z,74.99
2023-03-11T21:01:22.577Z,73.96
2023-03-11T21:03:52.261Z,74.49
2023-03-11T21:06:22.567Z,74.36
2023-03-11T21:08:50.240Z,74.88
2023-03-11T21:11:17.828Z,74.13
2023-03-11T21:13:45.380Z,73.98
2023-03-11T21:16:12.836Z,74.29
2023-03-11T21:18:41.567Z,74.02
2023-03-11T21:21:10.864Z,73.76
2023-03-11T21:23:42.183Z,74.08
2023-03-11T21:26:11.357Z,73.65
2023-03-11T21:28:42.441Z,74.47
2023-03-11T21:31:12.113Z,73.96
2023-03-11T21:33:40.188Z,74.33
2023-03-11T21:36:08.695Z,74.68
2023-03-11T21:38:36.259Z,74.36
2023-03-11T21:41:14.990Z,73.95
2023-03-11T21:43:42.684Z,75.37
2023-03-11T21:46:12.628Z,74.58
2023-03-11T21:48:40.139Z,74.00
2023-03-11T21:51:08.125Z,74.54
2023-03-11T21:53:35.343Z,75.56
2023-03-11T21:56:03.870Z,74.88
2023-03-11T21:58:32.356Z,75.06
2023-03-11T22:01:00.149Z,75.36
2023-03-11T22:03:27.967Z,76.53
2023-03-11T22:05:59.484Z,75.63
2023-03-11T22:08:27.061Z,75.57
2023-03-11T22:10:54.449Z,75.66
2023-03-11T22:13:21.802Z,75.53
2023-03-11T22:15:49.115Z,75.88
2023-03-11T22:18:16.248Z,75.47
2023-03-11T22:20:43.672Z,76.12
2023-03-11T22:23:10.940Z,75.44
2023-03-11T22:25:37.977Z,76.22
2023-03-11T22:28:05.221Z,75.47
2023-03-11T22:30:32.268Z,77.18
2023-03-11T22:32:59.283Z,76.36
2023-03-11T22:35:26.483Z,75.63
2023-03-11T22:37:53.469Z,76.59
2023-03-11T22:40:20.548Z,76.07
2023-03-11T22:42:47.517Z,78.35
2023-03-11T22:45:14.586Z,77.38
2023-03-11T22:47:41.584Z,78.30
2023-03-11T22:50:10.204Z,77.47
2023-03-11T22:52:37.194Z,77.53
2023-03-11T22:55:04.331Z,77.32
2023-03-11T22:57:38.748Z,77.12
2023-03-11T23:00:17.382Z,76.99
2023-03-11T23:02:45.825Z,77.02
2023-03-11T23:05:14.797Z,79.64
2023-03-11T23:07:42.057Z,78.46
2023-03-11T23:10:12.694Z,77.76
2023-03-11T23:12:40.310Z,77.29
2023-03-11T23:15:16.583Z,78.53
2023-03-11T23:17:43.901Z,77.91
2023-03-11T23:20:14.212Z,78.33
2023-03-11T23:22:42.660Z,77.60
2023-03-11T23:25:13.938Z,77.35
2023-03-11T23:27:42.809Z,78.42
2023-03-11T23:30:12.260Z,78.30
2023-03-11T23:32:39.526Z,78.62
2023-03-11T23:35:07.127Z,78.38
2023-03-11T23:37:34.128Z,78.33
2023-03-11T23:40:01.277Z,78.36
2023-03-11T23:42:33.260Z,77.86
2023-03-11T23:45:00.773Z,78.15
2023-03-11T23:47:28.832Z,78.01
2023-03-11T23:49:55.895Z,78.42
2023-03-11T23:52:23.108Z,77.57
2023-03-11T23:54:50.089Z,77.14
2023-03-11T23:57:17.124Z,77.67
2023-03-11T23:59:44.684Z,78.16
